createdAt,value
2022-12-22T00:02:40.215Z,7.61
2022-12-22T00:05:36.157Z,7.58
2022-12-22T00:08:22.008Z,7.57
2022-12-22T00:11:07.323Z,7.53
2022-12-22T00:13:52.998Z,7.51
2022-12-22T00:16:38.339Z,7.51
2022-12-22T00:19:31.559Z,7.50
2022-12-22T00:22:20.360Z,7.55
2022-12-22T00:25:05.099Z,7.57
2022-12-22T00:27:50.378Z,7.61
2022-12-22T00:30:36.142Z,7.63
2022-12-22T00:33:23.437Z,7.71
2022-12-22T00:36:08.724Z,7.75
2022-12-22T00:38:53.484Z,7.80
2022-12-22T00:41:38.381Z,7.84
2022-12-22T00:44:23.063Z,7.83
2022-12-22T00:47:07.847Z,7.82
2022-12-22T00:49:54.816Z,7.77
2022-12-22T00:52:42.015Z,7.81
2022-12-22T00:55:35.428Z,7.76
2022-12-22T00:58:22.701Z,7.75
2022-12-22T01:01:07.625Z,7.78
2022-12-22T01:03:52.284Z,7.75
2022-12-22T01:06:37.623Z,7.80
2022-12-22T01:09:24.277Z,7.77
2022-12-22T01:12:11.946Z,7.92
2022-12-22T01:14:56.789Z,7.79
2022-12-22T01:17:41.498Z,7.78
2022-12-22T01:20:26.807Z,7.67
2022-12-22T01:23:11.552Z,7.66
2022-12-22T01:25:56.303Z,7.62
2022-12-22T01:28:41.075Z,7.60
2022-12-22T01:31:36.531Z,7.78
2022-12-22T01:34:21.679Z,7.92
2022-12-22T01:37:06.535Z,7.86
2022-12-22T01:39:51.296Z,7.79
2022-12-22T01:42:36.588Z,7.74
2022-12-22T01:45:33.941Z,7.64
2022-12-22T01:48:21.226Z,7.72
2022-12-22T01:51:06.598Z,7.81
2022-12-22T01:53:52.882Z,7.75
2022-12-22T01:56:38.192Z,7.79
2022-12-22T01:59:23.518Z,7.68
2022-12-22T02:02:08.506Z,7.69
2022-12-22T02:05:00.363Z,7.68
2022-12-22T02:07:50.716Z,7.69
2022-12-22T02:10:45.440Z,7.74
2022-12-22T02:13:41.291Z,7.81
2022-12-22T02:16:36.597Z,7.86
2022-12-22T02:19:28.784Z,7.89
2022-12-22T02:22:43.968Z,7.92
2022-12-22T02:25:38.450Z,7.99
2022-12-22T02:28:24.655Z,8.02
2022-12-22T02:31:10.341Z,8.00
2022-12-22T02:33:57.518Z,8.07
2022-12-22T02:37:11.666Z,8.06
2022-12-22T02:40:18.391Z,8.03
2022-12-22T02:43:21.213Z,8.04
2022-12-22T02:46:23.423Z,8.15
2022-12-22T02:49:40.523Z,8.18
2022-12-22T02:52:37.034Z,8.19
2022-12-22T02:55:23.292Z,8.13
2022-12-22T02:58:11.745Z,8.14
2022-12-22T03:00:58.069Z,8.10
2022-12-22T03:03:43.393Z,8.11
2022-12-22T03:06:28.635Z,8.15
2022-12-22T03:09:13.424Z,8.15
2022-12-22T03:11:58.209Z,8.11
2022-12-22T03:14:43.158Z,8.08
2022-12-22T03:17:27.813Z,8.08
2022-12-22T03:20:12.709Z,8.08
2022-12-22T03:22:57.372Z,8.07
2022-12-22T03:25:42.185Z,8.10
2022-12-22T03:28:09.113Z,8.09
2022-12-22T03:30:35.934Z,8.12
2022-12-22T03:33:02.317Z,8.13
2022-12-22T03:35:28.591Z,8.16
2022-12-22T03:37:54.889Z,8.23
2022-12-22T03:40:21.284Z,8.25
2022-12-22T03:43:06.409Z,8.16
2022-12-22T03:45:51.123Z,8.11
2022-12-22T03:48:17.421Z,8.06
2022-12-22T03:50:43.867Z,8.12
2022-12-22T03:53:10.156Z,8.12
2022-12-22T03:55:36.467Z,8.13
2022-12-22T03:58:02.762Z,8.19
2022-12-22T04:00:29.083Z,8.23
2022-12-22T04:02:58.023Z,8.21
2022-12-22T04:05:24.908Z,8.26
2022-12-22T04:07:51.216Z,8.27
2022-12-22T04:10:36.177Z,8.30
2022-12-22T04:13:02.516Z,8.39
2022-12-22T04:15:31.738Z,8.39
2022-12-22T04:17:59.392Z,8.41
2022-12-22T04:20:27.459Z,8.45
2022-12-22T04:22:55.300Z,8.41
2022-12-22T04:25:22.147Z,8.32
2022-12-22T04:27:48.857Z,8.32
2022-12-22T04:30:15.919Z,8.26
2022-12-22T04:32:42.517Z,8.28
2022-12-22T04:35:09.352Z,8.32
2022-12-22T04:37:36.012Z,8.35
2022-12-22T04:40:02.334Z,8.35
2022-12-22T04:42:29.508Z,8.34
2022-12-22T04:44:55.739Z,8.39
2022-12-22T04:47:22.076Z,8.42
2022-12-22T04:49:48.389Z,8.46
2022-12-22T04:52:14.702Z,8.56
2022-12-22T04:54:40.970Z,8.60
2022-12-22T04:57:07.407Z,8.63
2022-12-22T04:59:33.711Z,8.64
2022-12-22T05:02:00.159Z,8.69
2022-12-22T05:04:26.543Z,8.77
2022-12-22T05:06:52.881Z,8.74
2022-12-22T05:09:19.315Z,8.75
2022-12-22T05:11:45.614Z,8.78
2022-12-22T05:14:11.927Z,8.85
2022-12-22T05:16:38.308Z,8.90
2022-12-22T05:21:32.208Z,9.01
2022-12-22T05:23:58.560Z,9.06
2022-12-22T05:26:24.907Z,9.04
2022-12-22T05:28:51.213Z,9.26
2022-12-22T05:31:20.629Z,9.13
2022-12-22T05:33:47.503Z,9.09
2022-12-22T05:36:13.996Z,9.07
2022-12-22T05:38:40.428Z,9.16
2022-12-22T05:41:07.784Z,9.24
2022-12-22T05:43:35.438Z,9.16
2022-12-22T05:46:06.746Z,9.22
2022-12-22T05:48:37.939Z,9.11
2022-12-22T05:51:06.751Z,9.16
2022-12-22T05:53:33.160Z,9.13
2022-12-22T05:55:59.405Z,9.21
2022-12-22T05:58:25.735Z,9.28
2022-12-22T06:00:52.109Z,9.34
2022-12-22T06:03:18.446Z,9.35
2022-12-22T06:05:44.837Z,9.39
2022-12-22T06:08:11.107Z,9.45
2022-12-22T06:10:37.442Z,9.53
2022-12-22T06:13:03.729Z,9.60
2022-12-22T06:15:30.022Z,9.74
2022-12-22T06:17:56.323Z,9.76
2022-12-22T06:20:22.615Z,9.73
2022-12-22T06:22:48.955Z,9.76
2022-12-22T06:25:18.596Z,9.76
2022-12-22T06:27:46.215Z,9.74
2022-12-22T06:30:12.917Z,9.80
2022-12-22T06:32:39.774Z,9.89
2022-12-22T06:35:07.760Z,9.86
2022-12-22T06:37:34.200Z,9.83
2022-12-22T06:40:00.465Z,9.90
2022-12-22T06:42:45.489Z,9.91
2022-12-22T06:45:11.800Z,9.89
2022-12-22T06:47:38.068Z,9.92
2022-12-22T06:50:04.996Z,9.92
2022-12-22T06:52:31.304Z,9.77
2022-12-22T06:54:57.551Z,10.02
2022-12-22T06:57:23.866Z,10.03
2022-12-22T06:59:57.121Z,10.05
2022-12-22T07:02:24.063Z,9.98
2022-12-22T07:04:50.498Z,10.01
2022-12-22T07:07:16.836Z,10.09
2022-12-22T07:09:43.200Z,10.20
2022-12-22T07:12:09.530Z,10.22
2022-12-22T07:14:35.813Z,10.17
2022-12-22T07:17:02.126Z,10.30
2022-12-22T07:19:28.509Z,10.34
2022-12-22T07:21:54.882Z,10.41
2022-12-22T07:24:24.933Z,10.46
2022-12-22T07:26:51.637Z,10.48
2022-12-22T07:29:18.179Z,10.48
2022-12-22T07:31:44.585Z,10.49
2022-12-22T07:34:11.639Z,10.50
2022-12-22T07:36:37.951Z,10.48
2022-12-22T07:39:04.374Z,10.50
2022-12-22T07:41:49.367Z,10.57
2022-12-22T07:44:15.672Z,10.52
2022-12-22T07:46:41.972Z,10.54
2022-12-22T07:49:28.799Z,10.53
2022-12-22T07:51:58.855Z,10.47
2022-12-22T07:54:26.471Z,10.44
2022-12-22T07:56:54.390Z,10.41
2022-12-22T07:59:20.864Z,10.38
2022-12-22T08:01:47.410Z,10.35
2022-12-22T08:04:14.746Z,10.39
2022-12-22T08:06:41.768Z,10.41
2022-12-22T08:09:09.836Z,10.39
2022-12-22T08:11:36.149Z,10.40
2022-12-22T08:14:02.593Z,10.45
2022-12-22T08:16:29.348Z,10.46
2022-12-22T08:18:56.096Z,10.54
2022-12-22T08:21:22.507Z,10.52
2022-12-22T08:23:48.890Z,10.53
2022-12-22T08:26:20.319Z,10.60
2022-12-22T08:28:59.022Z,10.66
2022-12-22T08:31:28.646Z,10.65
2022-12-22T08:33:56.967Z,10.71
2022-12-22T08:36:23.784Z,10.61
2022-12-22T08:38:50.549Z,10.75
2022-12-22T08:41:37.483Z,10.73
2022-12-22T08:44:06.296Z,10.71
2022-12-22T08:46:32.651Z,10.76
2022-12-22T08:48:59.300Z,10.76
2022-12-22T08:51:25.603Z,10.86
2022-12-22T08:54:07.395Z,10.79
2022-12-22T08:56:33.973Z,10.77
2022-12-22T08:59:04.884Z,10.63
2022-12-22T09:01:36.099Z,10.65
2022-12-22T09:04:03.311Z,10.68
2022-12-22T09:06:34.785Z,10.70
2022-12-22T09:09:08.881Z,10.61
2022-12-22T09:11:35.177Z,10.50
2022-12-22T09:14:02.372Z,10.39
2022-12-22T09:16:30.816Z,10.34
2022-12-22T09:18:57.304Z,10.24
2022-12-22T09:21:24.558Z,10.19
2022-12-22T09:23:51.571Z,10.07
2022-12-22T09:26:21.362Z,10.12
2022-12-22T09:28:50.568Z,10.00
2022-12-22T09:31:18.386Z,10.03
2022-12-22T09:33:44.696Z,10.11
2022-12-22T09:36:14.280Z,10.19
2022-12-22T09:38:40.999Z,10.19
2022-12-22T09:41:51.170Z,10.28
2022-12-22T09:44:31.243Z,10.35
2022-12-22T09:47:00.987Z,10.43
2022-12-22T09:49:28.191Z,10.44
2022-12-22T09:51:59.145Z,10.41
2022-12-22T09:54:27.122Z,10.45
2022-12-22T09:56:53.477Z,10.59
2022-12-22T09:59:21.399Z,10.62
2022-12-22T10:02:29.990Z,10.75
2022-12-22T10:05:11.754Z,10.86
2022-12-22T10:07:42.118Z,10.87
2022-12-22T10:10:24.998Z,11.17
2022-12-22T10:12:54.370Z,11.10
2022-12-22T10:15:22.239Z,11.23
2022-12-22T10:17:53.956Z,11.23
2022-12-22T10:20:26.451Z,11.18
2022-12-22T10:22:54.735Z,11.10
2022-12-22T10:25:24.127Z,11.07
2022-12-22T10:27:51.674Z,11.00
2022-12-22T10:30:24.937Z,11.10
2022-12-22T10:33:12.012Z,11.16
2022-12-22T10:35:56.047Z,11.12
2022-12-22T10:38:30.333Z,11.10
2022-12-22T10:41:08.720Z,11.20
2022-12-22T10:43:40.140Z,11.39
2022-12-22T10:46:07.135Z,11.54
2022-12-22T10:48:36.676Z,11.66
2022-12-22T10:51:06.833Z,11.47
2022-12-22T10:53:55.840Z,11.40
2022-12-22T10:56:27.631Z,11.26
2022-12-22T10:58:57.083Z,11.22
2022-12-22T11:01:28.605Z,11.38
2022-12-22T11:03:55.250Z,11.32
2022-12-22T11:06:21.891Z,11.47
2022-12-22T11:08:51.512Z,11.53
2022-12-22T11:11:33.558Z,11.40
2022-12-22T11:14:37.704Z,11.48
2022-12-22T11:17:29.069Z,11.49
2022-12-22T11:20:13.509Z,11.55
2022-12-22T11:22:52.796Z,11.45
2022-12-22T11:25:28.840Z,11.62
2022-12-22T11:28:19.652Z,11.66
2022-12-22T11:30:51.522Z,11.66
2022-12-22T11:34:01.828Z,11.67
2022-12-22T11:36:52.976Z,11.66
2022-12-22T11:39:40.401Z,11.59
2022-12-22T11:42:44.835Z,11.53
2022-12-22T11:45:19.967Z,11.46
2022-12-22T11:48:19.813Z,11.44
2022-12-22T11:51:00.866Z,11.44
2022-12-22T11:54:08.689Z,11.24
2022-12-22T11:56:41.169Z,11.06
2022-12-22T11:59:34.411Z,11.01
2022-12-22T12:02:21.252Z,10.82
2022-12-22T12:05:16.248Z,10.67
2022-12-22T12:08:04.052Z,10.66
2022-12-22T12:10:44.659Z,10.72
2022-12-22T12:13:36.488Z,10.68
2022-12-22T12:16:22.683Z,10.69
2022-12-22T12:19:24.752Z,10.64
2022-12-22T12:21:57.219Z,10.63
2022-12-22T12:24:46.361Z,10.62
2022-12-22T12:27:27.980Z,10.56
2022-12-22T12:33:05.003Z,10.62
2022-12-22T12:35:46.408Z,10.63
2022-12-22T12:38:56.348Z,10.70
2022-12-22T12:41:20.494Z,10.68
2022-12-22T12:43:51.799Z,10.58
2022-12-22T12:46:53.836Z,10.58
2022-12-22T12:49:35.745Z,10.56
2022-12-22T12:52:08.756Z,10.61
2022-12-22T12:54:40.695Z,10.54
2022-12-22T12:57:07.181Z,10.65
2022-12-22T12:59:39.710Z,10.67
2022-12-22T13:02:28.469Z,10.61
2022-12-22T13:05:13.186Z,10.59
2022-12-22T13:08:09.389Z,10.63
2022-12-22T13:11:09.699Z,10.59
2022-12-22T13:13:36.120Z,10.60
2022-12-22T13:16:02.614Z,10.54
2022-12-22T13:18:29.078Z,10.51
2022-12-22T13:21:18.827Z,10.52
2022-12-22T13:24:23.669Z,10.61
2022-12-22T13:26:44.210Z,10.70
2022-12-22T13:29:26.715Z,10.66
2022-12-22T13:32:17.462Z,10.65
2022-12-22T13:35:20.616Z,10.61
2022-12-22T13:37:42.069Z,10.49
2022-12-22T13:40:14.017Z,10.29
2022-12-22T13:42:44.849Z,10.35
2022-12-22T13:45:32.602Z,10.35
2022-12-22T13:48:01.090Z,10.34
2022-12-22T13:50:36.473Z,10.40
2022-12-22T13:53:07.271Z,10.35
2022-12-22T13:55:34.144Z,10.28
2022-12-22T13:58:27.631Z,10.30
2022-12-22T14:01:19.580Z,10.33
2022-12-22T14:04:00.175Z,10.38
2022-12-22T14:06:32.441Z,10.41
2022-12-22T14:09:20.354Z,10.43
2022-12-22T14:12:03.659Z,10.45
2022-12-22T14:14:44.519Z,10.47
2022-12-22T14:17:27.674Z,10.43
2022-12-22T14:19:57.361Z,10.38
2022-12-22T14:22:29.133Z,10.25
2022-12-22T14:25:00.770Z,10.21
2022-12-22T14:27:47.169Z,10.22
2022-12-22T14:30:22.643Z,10.13
2022-12-22T14:32:55.891Z,10.06
2022-12-22T14:35:22.454Z,10.08
2022-12-22T14:38:09.026Z,10.03
2022-12-22T14:40:37.287Z,9.99
2022-12-22T14:43:07.136Z,9.96
2022-12-22T14:45:33.816Z,9.96
2022-12-22T14:48:00.123Z,9.84
2022-12-22T14:50:28.327Z,9.85
2022-12-22T14:53:05.205Z,9.78
2022-12-22T14:55:39.451Z,9.74
2022-12-22T14:58:14.519Z,9.63
2022-12-22T15:00:43.794Z,9.56
2022-12-22T15:03:25.475Z,9.53
2022-12-22T15:05:53.080Z,9.47
2022-12-22T15:08:41.829Z,9.45
2022-12-22T15:11:17.364Z,9.43
2022-12-22T15:13:46.894Z,9.38
2022-12-22T15:16:18.204Z,9.31
2022-12-22T15:18:45.412Z,9.29
2022-12-22T15:21:14.356Z,9.25
2022-12-22T15:23:40.986Z,9.25
2022-12-22T15:26:07.708Z,9.21
2022-12-22T15:28:34.159Z,9.19
2022-12-22T15:31:02.395Z,9.17
2022-12-22T15:33:30.046Z,9.15
2022-12-22T15:35:57.132Z,9.11
2022-12-22T15:38:24.996Z,9.11
2022-12-22T15:40:52.399Z,9.05
2022-12-22T15:46:06.729Z,9.08
2022-12-22T15:48:35.377Z,9.05
2022-12-22T15:51:04.204Z,9.04
2022-12-22T15:53:32.533Z,9.04
2022-12-22T15:55:59.017Z,9.05
2022-12-22T15:58:30.825Z,9.14
2022-12-22T16:00:57.323Z,9.11
2022-12-22T16:03:23.747Z,9.06
2022-12-22T16:05:50.333Z,9.06
2022-12-22T16:08:20.985Z,9.03
2022-12-22T16:10:48.454Z,8.99
2022-12-22T16:13:16.510Z,8.95
2022-12-22T16:15:42.856Z,9.04
2022-12-22T16:18:12.762Z,9.00
2022-12-22T16:20:41.751Z,9.00
2022-12-22T16:23:15.051Z,9.01
2022-12-22T16:25:44.118Z,9.01
2022-12-22T16:28:36.842Z,9.00
2022-12-22T16:31:03.192Z,8.99
2022-12-22T16:33:29.539Z,8.97
2022-12-22T16:35:55.924Z,9.02
2022-12-22T16:38:22.328Z,8.99
2022-12-22T16:40:51.554Z,8.99
2022-12-22T16:46:14.001Z,8.98
2022-12-22T16:48:44.379Z,8.99
2022-12-22T16:51:34.625Z,8.97
2022-12-22T16:54:01.804Z,8.96
2022-12-22T16:56:30.267Z,8.96
2022-12-22T16:58:57.674Z,8.94
2022-12-22T17:01:30.046Z,8.93
2022-12-22T17:04:00.789Z,8.91
2022-12-22T17:06:27.292Z,8.92
2022-12-22T17:08:53.732Z,8.94
2022-12-22T17:11:23.056Z,8.92
2022-12-22T17:13:51.584Z,8.92
2022-12-22T17:16:20.525Z,8.94
2022-12-22T17:18:47.587Z,8.94
2022-12-22T17:21:16.457Z,8.94
2022-12-22T17:23:47.338Z,8.93
2022-12-22T17:26:17.647Z,8.89
2022-12-22T17:28:45.331Z,8.87
2022-12-22T17:31:17.296Z,8.92
2022-12-22T17:33:43.829Z,8.92
2022-12-22T17:36:26.332Z,8.91
2022-12-22T17:38:54.160Z,8.99
2022-12-22T17:41:20.469Z,8.89
2022-12-22T17:43:46.825Z,8.94
2022-12-22T17:46:18.229Z,8.95
2022-12-22T17:48:45.483Z,8.94
2022-12-22T17:51:25.194Z,8.89
2022-12-22T17:53:52.476Z,8.87
2022-12-22T17:56:24.037Z,8.83
2022-12-22T17:58:50.902Z,8.81
2022-12-22T18:01:30.862Z,8.87
2022-12-22T18:03:58.000Z,8.85
2022-12-22T18:06:30.047Z,8.90
2022-12-22T18:08:57.275Z,8.86
2022-12-22T18:11:24.215Z,8.93
2022-12-22T18:13:51.748Z,8.89
2022-12-22T18:16:20.495Z,8.97
2022-12-22T18:18:47.424Z,9.15
2022-12-22T18:21:16.143Z,9.09
2022-12-22T18:23:49.529Z,9.08
2022-12-22T18:26:26.829Z,8.99
2022-12-22T18:28:54.527Z,9.05
2022-12-22T18:31:22.010Z,8.99
2022-12-22T18:33:48.653Z,9.08
2022-12-22T18:36:32.950Z,9.10
2022-12-22T18:39:01.271Z,9.03
2022-12-22T18:41:30.369Z,9.04
2022-12-22T18:43:56.701Z,8.98
2022-12-22T18:46:23.964Z,8.96
2022-12-22T18:48:50.536Z,8.91
2022-12-22T18:51:25.473Z,8.94
2022-12-22T18:53:53.459Z,8.92
2022-12-22T18:56:20.211Z,8.86
2022-12-22T18:58:47.016Z,8.86
2022-12-22T19:01:26.762Z,9.04
2022-12-22T19:03:55.853Z,9.04
2022-12-22T19:06:23.348Z,8.98
2022-12-22T19:08:50.423Z,8.92
2022-12-22T19:11:19.615Z,8.91
2022-12-22T19:13:48.379Z,8.91
2022-12-22T19:16:17.825Z,8.94
2022-12-22T19:18:44.534Z,9.01
2022-12-22T19:21:13.242Z,9.08
2022-12-22T19:23:39.581Z,9.03
2022-12-22T19:26:09.168Z,9.09
2022-12-22T19:28:42.565Z,9.14
2022-12-22T19:31:15.975Z,9.06
2022-12-22T19:33:43.054Z,9.00
2022-12-22T19:36:22.054Z,8.96
2022-12-22T19:38:50.979Z,8.98
2022-12-22T19:41:52.282Z,9.00
2022-12-22T19:44:25.261Z,8.92
2022-12-22T19:46:52.719Z,8.95
2022-12-22T19:49:24.346Z,8.91
2022-12-22T19:51:51.157Z,8.81
2022-12-22T19:54:17.755Z,8.81
2022-12-22T19:56:47.398Z,8.83
2022-12-22T19:59:38.656Z,8.84
2022-12-22T20:02:24.063Z,8.90
2022-12-22T20:04:51.340Z,8.93
2022-12-22T20:07:20.787Z,8.82
2022-12-22T20:09:47.328Z,8.78
2022-12-22T20:12:24.730Z,8.83
2022-12-22T20:14:52.569Z,8.77
2022-12-22T20:17:19.320Z,8.84
2022-12-22T20:19:45.622Z,8.84
2022-12-22T20:22:23.063Z,8.73
2022-12-22T20:24:50.169Z,8.77
2022-12-22T20:27:24.378Z,8.82
2022-12-22T20:29:50.867Z,8.69
2022-12-22T20:32:20.896Z,8.64
2022-12-22T20:34:51.884Z,8.66
2022-12-22T20:37:18.641Z,8.77
2022-12-22T20:39:45.446Z,8.71
2022-12-22T20:42:23.201Z,8.67
2022-12-22T20:45:02.060Z,8.70
2022-12-22T20:47:32.405Z,8.62
2022-12-22T20:49:59.207Z,8.62
2022-12-22T20:52:26.018Z,8.61
2022-12-22T20:54:52.313Z,8.59
2022-12-22T20:57:19.388Z,8.59
2022-12-22T20:59:53.877Z,8.56
2022-12-22T21:02:27.422Z,8.57
2022-12-22T21:04:54.458Z,8.54
2022-12-22T21:07:20.821Z,8.53
2022-12-22T21:09:47.143Z,8.45
2022-12-22T21:12:13.445Z,8.50
2022-12-22T21:14:39.765Z,8.52
2022-12-22T21:17:15.258Z,8.56
2022-12-22T21:19:41.717Z,8.59
2022-12-22T21:22:08.004Z,8.60
2022-12-22T21:24:34.376Z,8.57
2022-12-22T21:27:00.730Z,8.56
2022-12-22T21:29:27.177Z,8.56
2022-12-22T21:31:53.955Z,8.55
2022-12-22T21:34:23.227Z,8.50
2022-12-22T21:36:55.279Z,8.53
2022-12-22T21:39:29.564Z,8.52
2022-12-22T21:42:04.232Z,8.48
2022-12-22T21:44:33.239Z,8.56
2022-12-22T21:46:59.779Z,8.63
2022-12-22T21:49:28.929Z,8.64
2022-12-22T21:51:55.689Z,8.57
2022-12-22T21:54:24.316Z,8.55
2022-12-22T21:56:52.309Z,8.65
2022-12-22T21:59:18.676Z,8.63
2022-12-22T22:01:45.515Z,8.54
2022-12-22T22:04:12.634Z,8.44
2022-12-22T22:06:39.090Z,8.42
2022-12-22T22:09:06.951Z,8.45
2022-12-22T22:11:53.850Z,8.45
2022-12-22T22:14:20.252Z,8.42
2022-12-22T22:16:46.548Z,8.33
2022-12-22T22:19:13.296Z,8.36
2022-12-22T22:21:39.673Z,8.35
2022-12-22T22:24:06.224Z,8.45
2022-12-22T22:26:32.507Z,8.45
2022-12-22T22:28:58.784Z,8.42
2022-12-22T22:31:25.090Z,8.39
2022-12-22T22:33:51.444Z,8.35
2022-12-22T22:36:17.836Z,8.37
2022-12-22T22:38:44.117Z,8.33
2022-12-22T22:41:10.406Z,8.35
2022-12-22T22:43:36.680Z,8.35
2022-12-22T22:46:03.075Z,8.34
2022-12-22T22:48:29.459Z,8.40
2022-12-22T22:50:55.830Z,8.40
2022-12-22T22:53:22.128Z,8.42
2022-12-22T22:55:48.487Z,8.42
2022-12-22T22:58:15.052Z,8.48
2022-12-22T23:00:41.337Z,8.48
2022-12-22T23:03:07.856Z,8.47
2022-12-22T23:05:34.352Z,8.47
2022-12-22T23:08:00.634Z,8.52
2022-12-22T23:10:26.935Z,8.50
2022-12-22T23:12:53.281Z,8.44
2022-12-22T23:15:19.592Z,8.40
2022-12-22T23:17:45.882Z,8.37
2022-12-22T23:23:01.838Z,8.26
2022-12-22T23:25:28.105Z,8.36
2022-12-22T23:27:54.391Z,8.38
2022-12-22T23:30:20.691Z,8.42
2022-12-22T23:32:46.988Z,8.41
2022-12-22T23:35:13.363Z,8.46
2022-12-22T23:37:39.667Z,8.47
2022-12-22T23:42:56.844Z,8.48
2022-12-22T23:45:23.715Z,8.52
2022-12-22T23:47:50.035Z,8.57
2022-12-22T23:50:16.394Z,8.52
2022-12-22T23:52:47.346Z,8.64
2022-12-22T23:55:15.704Z,8.65
2022-12-22T23:57:41.961Z,8.66
